createdAt,value
2019-04-03T00:02:10.675Z,7.30
2019-04-03T00:07:36.000Z,9.60
2019-04-03T00:12:41.704Z,8.77
2019-04-03T00:17:46.946Z,7.87
2019-04-03T00:23:11.412Z,9.83
2019-04-03T00:28:16.801Z,9.30
2019-04-03T00:33:23.380Z,11.40
2019-04-03T00:38:28.709Z,10.20
2019-04-03T00:43:34.161Z,8.27
2019-04-03T00:48:39.434Z,9.60
2019-04-03T00:54:04.073Z,7.90
2019-04-03T00:59:28.756Z,10.20
2019-04-03T01:04:46.312Z,8.63
2019-04-03T01:09:51.845Z,10.67
2019-04-03T01:14:57.628Z,8.97
2019-04-03T01:20:22.545Z,10.87
2019-04-03T01:25:27.906Z,8.37
2019-04-03T01:30:33.230Z,11.27
2019-04-03T01:35:38.628Z,9.17
2019-04-03T01:40:44.058Z,10.70
2019-04-03T01:45:49.035Z,8.93
2019-04-03T01:50:54.308Z,10.43
2019-04-03T01:56:01.335Z,9.07
2019-04-03T02:01:08.580Z,11.33
2019-04-03T02:06:33.461Z,9.20
2019-04-03T02:11:39.175Z,11.23
2019-04-03T02:17:03.706Z,9.40
2019-04-03T02:22:09.042Z,12.07
2019-04-03T02:27:33.884Z,9.60
2019-04-03T02:32:39.637Z,11.57
2019-04-03T02:37:48.709Z,12.10
2019-04-03T02:42:52.352Z,10.10
2019-04-03T02:47:57.655Z,11.63
2019-04-03T02:53:22.584Z,10.97
2019-04-03T02:58:27.925Z,9.00
2019-04-03T03:03:33.215Z,11.40
2019-04-03T03:08:41.651Z,9.50
2019-04-03T03:13:45.690Z,11.50
2019-04-03T03:18:51.355Z,10.20
2019-04-03T03:23:57.446Z,13.00
2019-04-03T03:29:17.029Z,10.67
2019-04-03T03:34:11.162Z,12.43
2019-04-03T03:39:16.849Z,9.83
2019-04-03T03:44:22.792Z,11.97
2019-04-03T03:49:49.755Z,12.87
2019-04-03T03:54:54.815Z,11.87
2019-04-03T04:00:22.586Z,13.63
2019-04-03T04:05:26.089Z,11.47
2019-04-03T04:10:35.887Z,13.97
2019-04-03T04:15:39.398Z,13.57
2019-04-03T04:20:45.764Z,13.23
2019-04-03T04:25:52.006Z,11.33
2019-04-03T04:30:57.401Z,13.27
2019-04-03T04:36:02.813Z,12.57
2019-04-03T04:41:07.788Z,12.57
2019-04-03T04:46:13.496Z,12.87
2019-04-03T04:51:19.491Z,9.97
2019-04-03T04:56:44.028Z,12.20
2019-04-03T05:01:49.654Z,12.60
2019-04-03T05:06:55.057Z,10.27
2019-04-03T05:12:00.504Z,12.60
2019-04-03T05:17:05.880Z,12.10
2019-04-03T05:22:11.208Z,10.97
2019-04-03T05:27:16.150Z,10.77
2019-04-03T05:32:21.414Z,11.73
2019-04-03T05:37:27.780Z,10.20
2019-04-03T05:42:33.167Z,10.07
2019-04-03T05:47:39.208Z,12.63
2019-04-03T05:52:45.225Z,10.10
2019-04-03T05:57:50.210Z,13.60
2019-04-03T06:02:57.169Z,10.23
2019-04-03T06:08:21.618Z,13.37
2019-04-03T06:13:47.911Z,12.30
2019-04-03T06:18:53.045Z,13.27
2019-04-03T06:23:58.549Z,11.33
2019-04-03T06:29:22.787Z,13.60
2019-04-03T06:34:28.209Z,11.73
2019-04-03T06:39:33.674Z,13.47
2019-04-03T06:44:38.806Z,12.23
2019-04-03T06:49:44.214Z,14.40
2019-04-03T06:55:09.385Z,13.27
2019-04-03T07:00:15.179Z,12.07
2019-04-03T07:05:20.534Z,14.47
2019-04-03T07:10:26.161Z,14.47
2019-04-03T07:15:50.945Z,14.60
2019-04-03T07:20:56.170Z,14.90
2019-04-03T07:26:02.823Z,14.50
2019-04-03T07:31:27.964Z,14.17
2019-04-03T07:36:33.515Z,14.70
2019-04-03T07:41:41.074Z,15.80
2019-04-03T07:46:46.098Z,15.60
2019-04-03T07:51:51.945Z,14.53
2019-04-03T07:56:58.106Z,15.57
2019-04-03T08:02:03.854Z,15.50
2019-04-03T08:07:09.008Z,15.00
2019-04-03T08:12:14.248Z,13.60
2019-04-03T08:17:19.606Z,15.07
2019-04-03T08:22:24.775Z,17.53
2019-04-03T08:27:49.015Z,15.60
2019-04-03T08:32:54.527Z,15.50
2019-04-03T08:37:59.881Z,12.07
2019-04-03T08:43:05.005Z,14.23
2019-04-03T08:48:10.205Z,12.97
2019-04-03T08:53:15.945Z,12.77
2019-04-03T08:58:40.575Z,14.30
2019-04-03T09:03:45.852Z,14.20
2019-04-03T09:08:51.827Z,12.90
2019-04-03T09:13:57.247Z,13.93
2019-04-03T09:19:02.714Z,12.90
2019-04-03T09:24:08.301Z,13.50
2019-04-03T09:29:13.760Z,13.33
2019-04-03T09:34:33.904Z,13.17
2019-04-03T09:39:50.065Z,13.70
2019-04-03T09:45:06.693Z,14.70
2019-04-03T09:50:14.460Z,14.80
2019-04-03T09:55:20.032Z,13.87
2019-04-03T10:00:25.537Z,16.83
2019-04-03T10:05:30.877Z,16.00
2019-04-03T10:10:36.266Z,14.50
2019-04-03T10:15:41.457Z,14.40
2019-04-03T10:21:06.611Z,15.23
2019-04-03T10:26:12.185Z,14.17
2019-04-03T10:31:17.331Z,14.00
2019-04-03T10:36:22.565Z,14.63
2019-04-03T10:41:28.392Z,14.17
2019-04-03T10:46:34.531Z,14.10
2019-04-03T10:51:41.597Z,14.63
2019-04-03T10:56:46.558Z,14.60
2019-04-03T11:01:52.331Z,14.70
2019-04-03T11:06:57.888Z,14.10
2019-04-03T11:12:03.273Z,14.37
2019-04-03T11:17:09.772Z,14.03
2019-04-03T11:22:16.385Z,13.90
2019-04-03T11:27:25.114Z,13.87
2019-04-03T11:32:28.726Z,14.13
2019-04-03T11:37:33.988Z,14.17
2019-04-03T11:42:39.334Z,13.70
2019-04-03T11:47:45.838Z,14.73
2019-04-03T11:52:52.207Z,13.17
2019-04-03T11:57:57.626Z,13.00
2019-04-03T12:03:02.617Z,14.40
2019-04-03T12:08:07.847Z,13.63
2019-04-03T12:13:14.162Z,12.97
2019-04-03T12:18:20.047Z,14.83
2019-04-03T12:23:26.800Z,14.43
2019-04-03T12:28:32.038Z,15.10
2019-04-03T12:33:54.820Z,14.60
2019-04-03T12:38:57.277Z,13.63
2019-04-03T12:44:02.547Z,14.73
2019-04-03T12:49:09.592Z,13.27
2019-04-03T12:54:15.166Z,15.23
2019-04-03T12:59:21.083Z,14.53
2019-04-03T13:04:30.224Z,12.53
2019-04-03T13:09:37.748Z,14.40
2019-04-03T13:14:41.147Z,13.07
2019-04-03T13:19:46.477Z,13.73
2019-04-03T13:24:51.641Z,15.00
2019-04-03T13:29:56.978Z,13.80
2019-04-03T13:35:04.741Z,14.23
2019-04-03T13:40:10.314Z,14.97
2019-04-03T13:45:15.496Z,14.97
2019-04-03T13:50:22.939Z,13.93
2019-04-03T13:55:28.893Z,14.80
2019-04-03T14:00:34.475Z,13.00
2019-04-03T14:05:42.497Z,13.57
2019-04-03T14:10:46.824Z,14.03
2019-04-03T14:15:54.608Z,14.00
2019-04-03T14:20:59.196Z,12.80
2019-04-03T14:26:07.831Z,12.27
2019-04-03T14:31:11.636Z,12.17
2019-04-03T14:36:19.201Z,13.07
2019-04-03T14:41:24.070Z,12.17
2019-04-03T14:46:29.449Z,12.43
2019-04-03T14:51:34.687Z,12.20
2019-04-03T14:56:40.135Z,13.13
2019-04-03T15:01:45.837Z,13.00
2019-04-03T15:07:01.517Z,12.97
2019-04-03T15:11:57.533Z,12.10
2019-04-03T15:17:04.747Z,12.73
2019-04-03T15:22:09.935Z,12.73
2019-04-03T15:27:15.135Z,12.77
2019-04-03T15:32:20.593Z,12.03
2019-04-03T15:37:26.413Z,11.07
2019-04-03T15:42:31.534Z,11.70
2019-04-03T15:47:41.741Z,11.30
2019-04-03T15:52:46.094Z,12.37
2019-04-03T15:57:52.589Z,11.77
2019-04-03T16:02:57.330Z,11.47
2019-04-03T16:08:02.935Z,11.10
2019-04-03T16:13:09.050Z,12.77
2019-04-03T16:18:14.817Z,11.33
2019-04-03T16:23:19.869Z,11.17
2019-04-03T16:28:25.373Z,12.93
2019-04-03T16:33:31.321Z,12.07
2019-04-03T16:38:36.490Z,15.30
2019-04-03T16:43:41.729Z,11.27
2019-04-03T16:48:49.696Z,11.90
2019-04-03T16:53:54.449Z,10.80
2019-04-03T16:59:00.959Z,10.50
2019-04-03T17:04:09.170Z,12.87
2019-04-03T17:09:13.596Z,11.40
2019-04-03T17:14:19.463Z,11.70
2019-04-03T17:19:25.315Z,12.10
2019-04-03T17:24:40.989Z,11.37
2019-04-03T17:29:37.661Z,13.30
2019-04-03T17:34:43.890Z,13.53
2019-04-03T17:39:52.171Z,11.60
2019-04-03T17:44:56.184Z,11.73
2019-04-03T17:50:01.593Z,11.40
2019-04-03T17:55:10.070Z,13.67
2019-04-03T18:00:21.013Z,12.73
2019-04-03T18:05:26.198Z,11.90
2019-04-03T18:10:31.591Z,11.87
2019-04-03T18:15:36.826Z,12.80
2019-04-03T18:20:44.354Z,10.63
2019-04-03T18:26:08.813Z,11.67
2019-04-03T18:31:14.653Z,10.43
2019-04-03T18:36:20.376Z,11.20
2019-04-03T18:41:26.531Z,12.27
2019-04-03T18:46:34.379Z,10.50
2019-04-03T18:51:38.971Z,10.57
2019-04-03T18:56:45.840Z,11.93
2019-04-03T19:01:51.095Z,11.47
2019-04-03T19:06:56.462Z,11.60
2019-04-03T19:12:08.367Z,10.70
2019-04-03T19:17:08.568Z,10.50
2019-04-03T19:22:13.627Z,11.20
2019-04-03T19:27:19.077Z,10.33
2019-04-03T19:32:43.788Z,9.50
2019-04-03T19:38:36.407Z,9.27
2019-04-03T19:43:53.366Z,9.67
2019-04-03T19:49:16.274Z,11.40
2019-04-03T19:54:46.124Z,9.33
2019-04-03T20:01:05.654Z,10.90
2019-04-03T20:06:57.067Z,9.97
2019-04-03T20:12:23.281Z,18.27
2019-04-03T20:23:53.748Z,11.60
2019-04-03T20:29:01.708Z,12.10
2019-04-03T20:39:48.380Z,11.37
2019-04-03T20:44:53.774Z,11.97
2019-04-03T20:50:18.455Z,11.87
2019-04-03T21:01:22.800Z,12.20
2019-04-03T21:12:45.921Z,12.47
2019-04-03T21:17:53.921Z,12.70
2019-04-03T21:23:02.773Z,12.77
2019-04-03T21:28:26.081Z,12.13
2019-04-03T21:33:31.373Z,11.67
2019-04-03T21:38:36.986Z,12.83
2019-04-03T21:44:01.466Z,11.70
2019-04-03T21:49:06.867Z,12.13
2019-04-03T21:54:12.281Z,12.23
2019-04-03T21:59:17.514Z,12.70
2019-04-03T22:04:22.812Z,14.50
2019-04-03T22:09:48.215Z,11.90
2019-04-03T22:14:53.511Z,11.93
2019-04-03T22:20:18.081Z,12.70
2019-04-03T22:25:23.468Z,12.40
2019-04-03T22:30:28.680Z,13.43
2019-04-03T22:35:33.632Z,12.37
2019-04-03T22:40:39.123Z,13.50
2019-04-03T22:45:45.659Z,12.90
2019-04-03T22:50:50.827Z,13.33
2019-04-03T22:55:56.061Z,13.90
2019-04-03T23:01:04.092Z,13.33
2019-04-03T23:06:09.281Z,13.43
2019-04-03T23:11:14.529Z,13.83
2019-04-03T23:16:19.888Z,13.43
2019-04-03T23:21:25.071Z,14.43
2019-04-03T23:26:31.832Z,13.43
2019-04-03T23:31:36.822Z,14.67
2019-04-03T23:36:41.877Z,14.97
2019-04-03T23:41:47.041Z,14.47
2019-04-03T23:47:11.570Z,14.87
2019-04-03T23:52:35.894Z,15.07
2019-04-03T23:57:53.477Z,14.77
